sensor_id;sensor_type;location;lat;lon;timestamp;pressure;altitude;pressure_sealevel;temperature;humidity
71559;BME280;59382;43.852;25.952;2024-01-16T00:01:09;99555.16;;;9.69;45.11
71559;BME280;59382;43.852;25.952;2024-01-16T00:03:35;99565.56;;;9.54;45.14
71559;BME280;59382;43.852;25.952;2024-01-16T00:06:00;99582.19;;;9.51;45.33
71559;BME280;59382;43.852;25.952;2024-01-16T00:08:26;99580.97;;;9.36;45.46
71559;BME280;59382;43.852;25.952;2024-01-16T00:10:52;99590.03;;;9.41;45.53
71559;BME280;59382;43.852;25.952;2024-01-16T00:13:18;99590.81;;;9.42;45.60
71559;BME280;59382;43.852;25.952;2024-01-16T00:15:43;99595.66;;;9.51;45.26
71559;BME280;59382;43.852;25.952;2024-01-16T00:18:09;99580.41;;;9.45;45.23
71559;BME280;59382;43.852;25.952;2024-01-16T00:20:34;99597.28;;;9.52;45.19
71559;BME280;59382;43.852;25.952;2024-01-16T00:23:00;99597.19;;;9.59;45.20
71559;BME280;59382;43.852;25.952;2024-01-16T00:25:26;99581.13;;;9.52;45.08
71559;BME280;59382;43.852;25.952;2024-01-16T00:27:51;99591.91;;;9.52;45.05
71559;BME280;59382;43.852;25.952;2024-01-16T00:30:18;99603.88;;;9.56;45.23
71559;BME280;59382;43.852;25.952;2024-01-16T00:32:43;99615.91;;;9.54;45.09
71559;BME280;59382;43.852;25.952;2024-01-16T00:35:09;99620.94;;;9.50;45.24
71559;BME280;59382;43.852;25.952;2024-01-16T00:37:38;99631.94;;;9.49;45.46
71559;BME280;59382;43.852;25.952;2024-01-16T00:40:04;99611.78;;;9.40;45.09
71559;BME280;59382;43.852;25.952;2024-01-16T00:42:32;99616.47;;;9.44;45.31
71559;BME280;59382;43.852;25.952;2024-01-16T00:44:58;99630.19;;;9.54;44.97
71559;BME280;59382;43.852;25.952;2024-01-16T00:47:24;99629.75;;;9.57;45.41
71559;BME280;59382;43.852;25.952;2024-01-16T00:49:50;99639.00;;;9.61;45.09
71559;BME280;59382;43.852;25.952;2024-01-16T00:52:15;99614.81;;;9.43;45.04
71559;BME280;59382;43.852;25.952;2024-01-16T00:54:42;99621.75;;;9.51;45.03
71559;BME280;59382;43.852;25.952;2024-01-16T00:57:08;99634.06;;;9.58;44.92
71559;BME280;59382;43.852;25.952;2024-01-16T00:59:33;99634.97;;;9.52;45.32
71559;BME280;59382;43.852;25.952;2024-01-16T01:01:59;99649.50;;;9.51;45.22
71559;BME280;59382;43.852;25.952;2024-01-16T01:04:25;99654.06;;;9.51;45.17
71559;BME280;59382;43.852;25.952;2024-01-16T01:06:50;99615.72;;;9.26;44.88
71559;BME280;59382;43.852;25.952;2024-01-16T01:09:16;99667.19;;;9.47;45.04
71559;BME280;59382;43.852;25.952;2024-01-16T01:11:42;99649.00;;;9.31;45.07
71559;BME280;59382;43.852;25.952;2024-01-16T01:14:08;99666.31;;;9.35;45.19
71559;BME280;59382;43.852;25.952;2024-01-16T01:16:33;99656.00;;;9.32;45.39
71559;BME280;59382;43.852;25.952;2024-01-16T01:18:59;99655.56;;;9.35;45.32
71559;BME280;59382;43.852;25.952;2024-01-16T01:21:25;99654.03;;;9.39;45.39
71559;BME280;59382;43.852;25.952;2024-01-16T01:23:51;99653.44;;;9.37;45.23
71559;BME280;59382;43.852;25.952;2024-01-16T01:26:16;99643.47;;;9.26;45.48
71559;BME280;59382;43.852;25.952;2024-01-16T01:28:44;99655.63;;;9.29;45.32
71559;BME280;59382;43.852;25.952;2024-01-16T01:31:13;99645.56;;;9.24;45.56
71559;BME280;59382;43.852;25.952;2024-01-16T01:33:41;99657.75;;;9.27;45.30
71559;BME280;59382;43.852;25.952;2024-01-16T01:36:07;99647.53;;;9.17;45.24
71559;BME280;59382;43.852;25.952;2024-01-16T01:38:33;99672.94;;;9.21;45.26
71559;BME280;59382;43.852;25.952;2024-01-16T01:40:58;99658.47;;;9.04;45.67
71559;BME280;59382;43.852;25.952;2024-01-16T01:43:24;99679.53;;;9.07;45.99
71559;BME280;59382;43.852;25.952;2024-01-16T01:48:19;99681.81;;;8.92;45.85
71559;BME280;59382;43.852;25.952;2024-01-16T01:50:44;99662.75;;;8.76;45.89
71559;BME280;59382;43.852;25.952;2024-01-16T01:53:10;99671.22;;;8.79;45.98
71559;BME280;59382;43.852;25.952;2024-01-16T01:55:35;99658.34;;;8.63;46.00
71559;BME280;59382;43.852;25.952;2024-01-16T01:58:01;99686.50;;;8.79;46.00
71559;BME280;59382;43.852;25.952;2024-01-16T02:00:30;99677.63;;;8.78;46.23
71559;BME280;59382;43.852;25.952;2024-01-16T02:02:55;99678.94;;;8.87;46.08
71559;BME280;59382;43.852;25.952;2024-01-16T02:05:22;99671.72;;;8.88;46.18
71559;BME280;59382;43.852;25.952;2024-01-16T02:07:47;99689.78;;;8.99;46.32
71559;BME280;59382;43.852;25.952;2024-01-16T02:10:14;99690.59;;;8.99;46.03
71559;BME280;59382;43.852;25.952;2024-01-16T02:12:39;99694.94;;;9.00;45.96
71559;BME280;59382;43.852;25.952;2024-01-16T02:15:05;99691.06;;;8.96;45.79
71559;BME280;59382;43.852;25.952;2024-01-16T02:17:30;99677.31;;;8.86;46.15
71559;BME280;59382;43.852;25.952;2024-01-16T02:19:56;99691.28;;;8.95;46.30
71559;BME280;59382;43.852;25.952;2024-01-16T02:22:24;99696.06;;;8.93;46.19
71559;BME280;59382;43.852;25.952;2024-01-16T02:24:51;99703.31;;;8.92;46.40
71559;BME280;59382;43.852;25.952;2024-01-16T02:27:16;99711.84;;;8.89;46.65
71559;BME280;59382;43.852;25.952;2024-01-16T02:29:42;99702.59;;;8.85;46.53
71559;BME280;59382;43.852;25.952;2024-01-16T02:32:12;99742.19;;;8.96;46.47
71559;BME280;59382;43.852;25.952;2024-01-16T02:34:38;99738.44;;;8.97;46.73
71559;BME280;59382;43.852;25.952;2024-01-16T02:37:03;99750.88;;;8.98;46.59
71559;BME280;59382;43.852;25.952;2024-01-16T02:39:29;99750.47;;;8.95;46.58
71559;BME280;59382;43.852;25.952;2024-01-16T02:41:56;99766.84;;;8.93;46.64
71559;BME280;59382;43.852;25.952;2024-01-16T02:44:22;99751.00;;;8.85;46.55
71559;BME280;59382;43.852;25.952;2024-01-16T02:46:47;99776.09;;;8.97;46.48
71559;BME280;59382;43.852;25.952;2024-01-16T02:49:13;99787.75;;;8.91;46.46
71559;BME280;59382;43.852;25.952;2024-01-16T02:51:38;99775.50;;;8.77;46.78
71559;BME280;59382;43.852;25.952;2024-01-16T02:54:06;99790.00;;;8.76;46.80
71559;BME280;59382;43.852;25.952;2024-01-16T02:56:31;99818.72;;;8.82;46.68
71559;BME280;59382;43.852;25.952;2024-01-16T02:58:57;99828.53;;;8.70;46.82
71559;BME280;59382;43.852;25.952;2024-01-16T03:01:22;99826.59;;;8.53;46.82
71559;BME280;59382;43.852;25.952;2024-01-16T03:03:47;99836.59;;;8.46;47.16
71559;BME280;59382;43.852;25.952;2024-01-16T03:06:23;99848.66;;;8.37;47.39
71559;BME280;59382;43.852;25.952;2024-01-16T03:08:49;99840.91;;;8.22;47.29
71559;BME280;59382;43.852;25.952;2024-01-16T03:11:15;99861.16;;;8.18;47.23
71559;BME280;59382;43.852;25.952;2024-01-16T03:13:40;99854.22;;;8.04;47.59
71559;BME280;59382;43.852;25.952;2024-01-16T03:16:12;99848.22;;;8.02;47.60
71559;BME280;59382;43.852;25.952;2024-01-16T03:18:38;99845.72;;;8.07;47.41
71559;BME280;59382;43.852;25.952;2024-01-16T03:21:05;99855.00;;;8.11;47.71
71559;BME280;59382;43.852;25.952;2024-01-16T03:23:30;99873.78;;;8.24;47.22
71559;BME280;59382;43.852;25.952;2024-01-16T03:25:56;99866.75;;;8.23;47.25
71559;BME280;59382;43.852;25.952;2024-01-16T03:28:22;99866.50;;;8.31;47.18
71559;BME280;59382;43.852;25.952;2024-01-16T03:30:48;99881.13;;;8.35;47.29
71559;BME280;59382;43.852;25.952;2024-01-16T03:33:13;99878.88;;;8.32;47.36
71559;BME280;59382;43.852;25.952;2024-01-16T03:35:39;99865.94;;;8.16;47.39
71559;BME280;59382;43.852;25.952;2024-01-16T03:38:05;99889.38;;;7.96;47.98
71559;BME280;59382;43.852;25.952;2024-01-16T03:40:30;99884.50;;;7.80;48.20
71559;BME280;59382;43.852;25.952;2024-01-16T03:43:00;99912.00;;;7.82;48.24
71559;BME280;59382;43.852;25.952;2024-01-16T03:45:25;99900.88;;;7.72;48.60
71559;BME280;59382;43.852;25.952;2024-01-16T03:47:51;99917.44;;;7.62;49.05
71559;BME280;59382;43.852;25.952;2024-01-16T03:50:16;99925.16;;;7.33;49.47
71559;BME280;59382;43.852;25.952;2024-01-16T03:52:42;99942.91;;;7.21;49.36
71559;BME280;59382;43.852;25.952;2024-01-16T03:55:07;99951.38;;;7.11;49.85
71559;BME280;59382;43.852;25.952;2024-01-16T03:57:33;99940.03;;;6.90;50.23
71559;BME280;59382;43.852;25.952;2024-01-16T03:59:58;99959.84;;;6.95;50.85
71559;BME280;59382;43.852;25.952;2024-01-16T04:02:24;99969.75;;;6.95;50.87
71559;BME280;59382;43.852;25.952;2024-01-16T04:04:49;99960.69;;;6.83;50.93
71559;BME280;59382;43.852;25.952;2024-01-16T04:07:15;99977.38;;;6.72;52.00
71559;BME280;59382;43.852;25.952;2024-01-16T04:09:42;99987.03;;;6.53;52.30
71559;BME280;59382;43.852;25.952;2024-01-16T04:12:08;99986.59;;;6.37;53.02
71559;BME280;59382;43.852;25.952;2024-01-16T04:14:34;99977.47;;;6.25;54.49
71559;BME280;59382;43.852;25.952;2024-01-16T04:17:00;99979.06;;;6.13;54.29
71559;BME280;59382;43.852;25.952;2024-01-16T04:19:25;99958.16;;;5.88;54.54
71559;BME280;59382;43.852;25.952;2024-01-16T04:21:51;99969.13;;;5.93;55.01
71559;BME280;59382;43.852;25.952;2024-01-16T04:24:17;99978.94;;;5.86;55.20
71559;BME280;59382;43.852;25.952;2024-01-16T04:26:43;99973.94;;;5.77;55.49
71559;BME280;59382;43.852;25.952;2024-01-16T04:29:08;99988.31;;;5.69;57.25
71559;BME280;59382;43.852;25.952;2024-01-16T04:31:39;100020.16;;;5.85;56.13
71559;BME280;59382;43.852;25.952;2024-01-16T04:34:06;100020.16;;;5.85;56.23
71559;BME280;59382;43.852;25.952;2024-01-16T04:36:31;100026.25;;;5.79;57.78
71559;BME280;59382;43.852;25.952;2024-01-16T04:38:57;100035.59;;;5.62;57.60
71559;BME280;59382;43.852;25.952;2024-01-16T04:41:23;100038.44;;;5.54;57.25
71559;BME280;59382;43.852;25.952;2024-01-16T04:43:49;100060.25;;;5.51;59.05
71559;BME280;59382;43.852;25.952;2024-01-16T04:46:16;100072.97;;;5.49;58.94
71559;BME280;59382;43.852;25.952;2024-01-16T04:48:42;100061.81;;;5.39;57.44
71559;BME280;59382;43.852;25.952;2024-01-16T04:51:07;100087.88;;;5.58;58.37
71559;BME280;59382;43.852;25.952;2024-01-16T04:53:33;100098.06;;;5.69;57.97
71559;BME280;59382;43.852;25.952;2024-01-16T04:55:59;100089.84;;;5.71;58.70
71559;BME280;59382;43.852;25.952;2024-01-16T04:58:24;100095.38;;;5.69;58.00
71559;BME280;59382;43.852;25.952;2024-01-16T05:00:50;100103.63;;;5.74;58.53
71559;BME280;59382;43.852;25.952;2024-01-16T05:03:15;100095.13;;;5.64;58.07
71559;BME280;59382;43.852;25.952;2024-01-16T05:05:41;100109.00;;;5.74;58.05
71559;BME280;59382;43.852;25.952;2024-01-16T05:08:06;100123.94;;;5.62;59.59
71559;BME280;59382;43.852;25.952;2024-01-16T05:10:35;100130.22;;;5.48;59.65
71559;BME280;59382;43.852;25.952;2024-01-16T05:13:00;100126.00;;;5.39;60.34
71559;BME280;59382;43.852;25.952;2024-01-16T05:15:26;100103.28;;;5.08;61.79
71559;BME280;59382;43.852;25.952;2024-01-16T05:17:51;100131.56;;;5.17;61.17
71559;BME280;59382;43.852;25.952;2024-01-16T05:20:18;100133.38;;;5.16;62.64
71559;BME280;59382;43.852;25.952;2024-01-16T05:22:44;100155.06;;;5.21;61.60
71559;BME280;59382;43.852;25.952;2024-01-16T05:25:09;100150.97;;;5.25;61.67
71559;BME280;59382;43.852;25.952;2024-01-16T05:27:35;100141.41;;;5.16;62.00
71559;BME280;59382;43.852;25.952;2024-01-16T05:30:01;100175.41;;;5.22;63.28
71559;BME280;59382;43.852;25.952;2024-01-16T05:32:26;100178.09;;;5.22;61.89
71559;BME280;59382;43.852;25.952;2024-01-16T05:34:52;100184.38;;;5.29;62.10
71559;BME280;59382;43.852;25.952;2024-01-16T05:37:19;100190.16;;;5.33;62.65
71559;BME280;59382;43.852;25.952;2024-01-16T05:39:44;100184.88;;;5.39;61.83
71559;BME280;59382;43.852;25.952;2024-01-16T05:42:11;100195.19;;;5.42;61.69
71559;BME280;59382;43.852;25.952;2024-01-16T05:44:37;100197.97;;;5.34;63.61
71559;BME280;59382;43.852;25.952;2024-01-16T05:47:04;100209.00;;;5.25;62.62
71559;BME280;59382;43.852;25.952;2024-01-16T05:49:29;100213.97;;;5.28;62.85
71559;BME280;59382;43.852;25.952;2024-01-16T05:51:55;100216.84;;;5.26;62.66
71559;BME280;59382;43.852;25.952;2024-01-16T05:54:20;100236.19;;;5.28;63.69
71559;BME280;59382;43.852;25.952;2024-01-16T05:56:46;100259.28;;;5.29;63.44
71559;BME280;59382;43.852;25.952;2024-01-16T05:59:12;100255.56;;;5.30;63.81
71559;BME280;59382;43.852;25.952;2024-01-16T06:01:37;100244.34;;;5.20;64.75
71559;BME280;59382;43.852;25.952;2024-01-16T06:04:03;100266.63;;;5.27;64.45
71559;BME280;59382;43.852;25.952;2024-01-16T06:06:29;100283.91;;;5.25;64.14
71559;BME280;59382;43.852;25.952;2024-01-16T06:08:54;100289.25;;;5.25;64.19
71559;BME280;59382;43.852;25.952;2024-01-16T06:11:29;100289.44;;;5.23;63.99
71559;BME280;59382;43.852;25.952;2024-01-16T06:13:55;100302.06;;;5.29;63.36
71559;BME280;59382;43.852;25.952;2024-01-16T06:16:21;100312.84;;;5.36;63.48
71559;BME280;59382;43.852;25.952;2024-01-16T06:18:46;100320.28;;;5.40;63.17
71559;BME280;59382;43.852;25.952;2024-01-16T06:21:12;100280.50;;;5.16;62.78
71559;BME280;59382;43.852;25.952;2024-01-16T06:23:37;100313.66;;;5.36;62.23
71559;BME280;59382;43.852;25.952;2024-01-16T06:26:03;100330.84;;;5.27;63.02
71559;BME280;59382;43.852;25.952;2024-01-16T06:28:28;100336.09;;;5.21;63.41
71559;BME280;59382;43.852;25.952;2024-01-16T06:30:54;100328.03;;;5.00;62.92
71559;BME280;59382;43.852;25.952;2024-01-16T06:33:20;100348.13;;;5.10;63.27
71559;BME280;59382;43.852;25.952;2024-01-16T06:35:45;100360.72;;;5.16;63.38
71559;BME280;59382;43.852;25.952;2024-01-16T06:38:11;100376.03;;;5.22;62.72
71559;BME280;59382;43.852;25.952;2024-01-16T06:40:36;100380.03;;;5.26;62.32
71559;BME280;59382;43.852;25.952;2024-01-16T06:43:02;100386.94;;;5.35;61.89
71559;BME280;59382;43.852;25.952;2024-01-16T06:45:29;100380.84;;;5.41;61.65
71559;BME280;59382;43.852;25.952;2024-01-16T06:47:55;100387.47;;;5.45;62.09
71559;BME280;59382;43.852;25.952;2024-01-16T06:50:20;100404.56;;;5.44;62.24
71559;BME280;59382;43.852;25.952;2024-01-16T06:52:46;100410.91;;;5.43;62.40
71559;BME280;59382;43.852;25.952;2024-01-16T06:55:13;100411.28;;;5.40;61.78
71559;BME280;59382;43.852;25.952;2024-01-16T06:57:38;100416.25;;;5.43;62.89
71559;BME280;59382;43.852;25.952;2024-01-16T07:00:04;100428.63;;;5.44;62.72
71559;BME280;59382;43.852;25.952;2024-01-16T07:02:32;100431.94;;;5.46;61.87
71559;BME280;59382;43.852;25.952;2024-01-16T07:04:58;100434.72;;;5.38;63.21
71559;BME280;59382;43.852;25.952;2024-01-16T07:07:24;100419.47;;;5.39;62.89
71559;BME280;59382;43.852;25.952;2024-01-16T07:09:50;100444.50;;;5.60;62.39
71559;BME280;59382;43.852;25.952;2024-01-16T07:12:15;100430.91;;;5.62;62.42
71559;BME280;59382;43.852;25.952;2024-01-16T07:14:41;100439.84;;;5.69;61.77
71559;BME280;59382;43.852;25.952;2024-01-16T07:17:07;100449.06;;;5.81;61.94
71559;BME280;59382;43.852;25.952;2024-01-16T07:19:33;100439.88;;;5.83;61.37
71559;BME280;59382;43.852;25.952;2024-01-16T07:21:58;100460.34;;;6.06;60.72
71559;BME280;59382;43.852;25.952;2024-01-16T07:24:24;100471.72;;;6.29;60.67
71559;BME280;59382;43.852;25.952;2024-01-16T07:26:50;100478.94;;;6.49;59.88
71559;BME280;59382;43.852;25.952;2024-01-16T07:29:15;100467.25;;;6.57;59.91
71559;BME280;59382;43.852;25.952;2024-01-16T07:31:41;100454.88;;;6.77;59.09
71559;BME280;59382;43.852;25.952;2024-01-16T07:34:06;100490.59;;;7.05;58.68
71559;BME280;59382;43.852;25.952;2024-01-16T07:36:32;100476.22;;;7.12;58.22
71559;BME280;59382;43.852;25.952;2024-01-16T07:38:57;100492.75;;;7.16;58.04
71559;BME280;59382;43.852;25.952;2024-01-16T07:41:23;100497.72;;;7.19;58.08
71559;BME280;59382;43.852;25.952;2024-01-16T07:43:49;100515.13;;;7.23;57.97
71559;BME280;59382;43.852;25.952;2024-01-16T07:46:14;100532.09;;;7.30;57.95
71559;BME280;59382;43.852;25.952;2024-01-16T07:48:40;100546.16;;;7.32;57.58
71559;BME280;59382;43.852;25.952;2024-01-16T07:51:05;100537.56;;;7.43;57.37
71559;BME280;59382;43.852;25.952;2024-01-16T07:53:31;100528.88;;;7.41;57.15
71559;BME280;59382;43.852;25.952;2024-01-16T07:55:59;100522.63;;;7.34;56.83
71559;BME280;59382;43.852;25.952;2024-01-16T07:58:25;100541.28;;;7.42;56.44
71559;BME280;59382;43.852;25.952;2024-01-16T08:00:50;100541.72;;;7.45;56.57
71559;BME280;59382;43.852;25.952;2024-01-16T08:03:17;100557.47;;;7.55;56.11
71559;BME280;59382;43.852;25.952;2024-01-16T08:05:43;100536.56;;;7.44;56.11
71559;BME280;59382;43.852;25.952;2024-01-16T08:08:09;100561.91;;;7.41;56.09
71559;BME280;59382;43.852;25.952;2024-01-16T08:10:35;100570.94;;;7.34;56.37
71559;BME280;59382;43.852;25.952;2024-01-16T08:13:00;100581.94;;;7.18;56.05
71559;BME280;59382;43.852;25.952;2024-01-16T08:15:26;100591.66;;;6.98;56.26
71559;BME280;59382;43.852;25.952;2024-01-16T08:17:51;100588.22;;;6.83;56.66
71559;BME280;59382;43.852;25.952;2024-01-16T08:20:17;100586.47;;;6.75;56.84
71559;BME280;59382;43.852;25.952;2024-01-16T08:22:42;100589.34;;;6.74;56.74
71559;BME280;59382;43.852;25.952;2024-01-16T08:25:08;100592.50;;;6.63;56.62
71559;BME280;59382;43.852;25.952;2024-01-16T08:27:34;100597.34;;;6.53;56.83
71559;BME280;59382;43.852;25.952;2024-01-16T08:29:59;100593.13;;;6.44;56.63
71559;BME280;59382;43.852;25.952;2024-01-16T08:32:25;100578.91;;;6.29;56.62
71559;BME280;59382;43.852;25.952;2024-01-16T08:34:50;100585.47;;;6.26;57.15
71559;BME280;59382;43.852;25.952;2024-01-16T08:37:16;100623.16;;;6.39;56.87
71559;BME280;59382;43.852;25.952;2024-01-16T08:39:42;100618.63;;;6.40;56.77
71559;BME280;59382;43.852;25.952;2024-01-16T08:42:08;100628.88;;;6.51;56.14
71559;BME280;59382;43.852;25.952;2024-01-16T08:44:38;100644.63;;;6.75;56.18
71559;BME280;59382;43.852;25.952;2024-01-16T08:47:04;100643.59;;;6.90;55.46
71559;BME280;59382;43.852;25.952;2024-01-16T08:49:32;100638.84;;;6.92;55.25
71559;BME280;59382;43.852;25.952;2024-01-16T08:51:58;100625.38;;;6.86;55.20
71559;BME280;59382;43.852;25.952;2024-01-16T08:54:24;100663.66;;;7.15;55.20
71559;BME280;59382;43.852;25.952;2024-01-16T08:56:51;100660.03;;;7.23;54.84
71559;BME280;59382;43.852;25.952;2024-01-16T08:59:17;100665.97;;;7.39;54.37
71559;BME280;59382;43.852;25.952;2024-01-16T09:01:43;100664.81;;;7.48;53.95
71559;BME280;59382;43.852;25.952;2024-01-16T09:04:08;100650.75;;;7.46;53.81
71559;BME280;59382;43.852;25.952;2024-01-16T09:06:34;100693.84;;;7.59;53.79
71559;BME280;59382;43.852;25.952;2024-01-16T09:08:59;100706.19;;;7.54;53.62
71559;BME280;59382;43.852;25.952;2024-01-16T09:11:25;100687.00;;;7.36;53.62
71559;BME280;59382;43.852;25.952;2024-01-16T09:13:50;100711.81;;;7.38;53.90
71559;BME280;59382;43.852;25.952;2024-01-16T09:16:17;100689.78;;;7.28;54.10
71559;BME280;59382;43.852;25.952;2024-01-16T09:18:43;100684.00;;;7.24;53.81
71559;BME280;59382;43.852;25.952;2024-01-16T09:21:08;100699.78;;;7.34;54.02
71559;BME280;59382;43.852;25.952;2024-01-16T09:23:35;100715.13;;;7.40;54.00
71559;BME280;59382;43.852;25.952;2024-01-16T09:26:00;100705.69;;;7.44;54.00
71559;BME280;59382;43.852;25.952;2024-01-16T09:28:26;100716.53;;;7.57;53.68
71559;BME280;59382;43.852;25.952;2024-01-16T09:30:54;100716.53;;;7.57;53.49
71559;BME280;59382;43.852;25.952;2024-01-16T09:33:24;100716.53;;;7.57;53.29
71559;BME280;59382;43.852;25.952;2024-01-16T09:35:51;100736.34;;;7.56;53.39
71559;BME280;59382;43.852;25.952;2024-01-16T09:38:16;100729.31;;;7.55;53.29
71559;BME280;59382;43.852;25.952;2024-01-16T09:40:42;100733.09;;;7.60;53.49
71559;BME280;59382;43.852;25.952;2024-01-16T09:43:08;100739.94;;;7.84;53.14
71559;BME280;59382;43.852;25.952;2024-01-16T09:45:37;100737.09;;;7.92;52.73
71559;BME280;59382;43.852;25.952;2024-01-16T09:48:05;100760.00;;;8.09;52.45
71559;BME280;59382;43.852;25.952;2024-01-16T09:50:31;100769.13;;;8.15;52.04
71559;BME280;59382;43.852;25.952;2024-01-16T09:52:56;100770.88;;;8.22;52.06
71559;BME280;59382;43.852;25.952;2024-01-16T09:55:24;100770.75;;;8.30;51.60
71559;BME280;59382;43.852;25.952;2024-01-16T09:57:53;100769.31;;;8.34;51.47
71559;BME280;59382;43.852;25.952;2024-01-16T10:00:19;100771.53;;;8.24;51.65
71559;BME280;59382;43.852;25.952;2024-01-16T10:02:45;100766.63;;;8.13;51.47
71559;BME280;59382;43.852;25.952;2024-01-16T10:05:11;100768.94;;;8.16;51.46
71559;BME280;59382;43.852;25.952;2024-01-16T10:07:38;100759.63;;;8.12;51.28
71559;BME280;59382;43.852;25.952;2024-01-16T10:10:04;100758.56;;;8.13;51.40
71559;BME280;59382;43.852;25.952;2024-01-16T10:12:30;100777.91;;;8.23;50.98
71559;BME280;59382;43.852;25.952;2024-01-16T10:14:57;100787.56;;;8.18;51.34
71559;BME280;59382;43.852;25.952;2024-01-16T10:17:35;100786.34;;;8.20;51.11
71559;BME280;59382;43.852;25.952;2024-01-16T10:20:00;100778.47;;;7.97;51.09
71559;BME280;59382;43.852;25.952;2024-01-16T10:22:30;100792.09;;;7.96;51.35
71559;BME280;59382;43.852;25.952;2024-01-16T10:25:09;100784.69;;;7.98;51.64
71559;BME280;59382;43.852;25.952;2024-01-16T10:27:38;100785.97;;;8.02;51.74
71559;BME280;59382;43.852;25.952;2024-01-16T10:30:04;100803.00;;;8.09;51.72
71559;BME280;59382;43.852;25.952;2024-01-16T10:32:33;100800.94;;;8.11;51.64
71559;BME280;59382;43.852;25.952;2024-01-16T10:37:31;100801.47;;;8.21;51.55
71559;BME280;59382;43.852;25.952;2024-01-16T10:39:57;100785.72;;;8.18;50.65
71559;BME280;59382;43.852;25.952;2024-01-16T10:42:22;100790.53;;;8.23;50.54
71559;BME280;59382;43.852;25.952;2024-01-16T10:44:54;100797.75;;;8.22;50.04
71559;BME280;59382;43.852;25.952;2024-01-16T10:47:22;100792.09;;;8.17;49.74
71559;BME280;59382;43.852;25.952;2024-01-16T10:49:48;100797.75;;;8.22;50.01
71559;BME280;59382;43.852;25.952;2024-01-16T10:52:14;100804.41;;;8.26;49.25
71559;BME280;59382;43.852;25.952;2024-01-16T10:54:43;100801.91;;;8.25;49.40
71559;BME280;59382;43.852;25.952;2024-01-16T10:57:13;100805.69;;;8.30;49.47
71559;BME280;59382;43.852;25.952;2024-01-16T10:59:55;100790.72;;;8.21;49.34
71559;BME280;59382;43.852;25.952;2024-01-16T11:02:29;100823.97;;;8.41;49.62
71559;BME280;59382;43.852;25.952;2024-01-16T11:05:03;100817.56;;;8.42;49.81
71559;BME280;59382;43.852;25.952;2024-01-16T11:07:29;100823.19;;;8.47;49.56
71559;BME280;59382;43.852;25.952;2024-01-16T11:09:56;100803.81;;;8.31;49.59
71559;BME280;59382;43.852;25.952;2024-01-16T11:12:22;100826.06;;;8.39;49.87
71559;BME280;59382;43.852;25.952;2024-01-16T11:14:51;100833.56;;;8.50;49.85
71559;BME280;59382;43.852;25.952;2024-01-16T11:17:19;100814.25;;;8.40;49.75
71559;BME280;59382;43.852;25.952;2024-01-16T11:19:48;100813.41;;;8.40;49.60
71559;BME280;59382;43.852;25.952;2024-01-16T11:22:15;100814.38;;;8.32;49.26
71559;BME280;59382;43.852;25.952;2024-01-16T11:24:41;100836.34;;;8.36;49.20
71559;BME280;59382;43.852;25.952;2024-01-16T11:27:07;100815.16;;;8.26;49.15
71559;BME280;59382;43.852;25.952;2024-01-16T11:29:34;100839.63;;;8.31;49.35
71559;BME280;59382;43.852;25.952;2024-01-16T11:32:01;100828.88;;;8.31;49.49
71559;BME280;59382;43.852;25.952;2024-01-16T11:37:11;100826.66;;;8.20;48.92
71559;BME280;59382;43.852;25.952;2024-01-16T11:39:37;100836.13;;;8.16;49.08
71559;BME280;59382;43.852;25.952;2024-01-16T11:42:03;100843.16;;;8.17;49.00
71559;BME280;59382;43.852;25.952;2024-01-16T11:44:46;100849.31;;;8.11;48.85
71559;BME280;59382;43.852;25.952;2024-01-16T11:47:20;100851.00;;;8.12;49.02
71559;BME280;59382;43.852;25.952;2024-01-16T11:49:47;100875.19;;;8.12;49.16
71559;BME280;59382;43.852;25.952;2024-01-16T11:52:13;100869.34;;;8.08;49.18
71559;BME280;59382;43.852;25.952;2024-01-16T11:54:41;100874.25;;;8.05;49.39
71559;BME280;59382;43.852;25.952;2024-01-16T12:02:58;100881.84;;;8.16;49.57
71559;BME280;59382;43.852;25.952;2024-01-16T12:05:26;100888.47;;;8.20;49.73
71559;BME280;59382;43.852;25.952;2024-01-16T12:07:53;100895.09;;;8.18;49.52
71559;BME280;59382;43.852;25.952;2024-01-16T12:10:21;100881.94;;;8.08;49.97
71559;BME280;59382;43.852;25.952;2024-01-16T12:12:47;100880.22;;;8.00;49.73
71559;BME280;59382;43.852;25.952;2024-01-16T12:15:22;100870.56;;;7.85;49.69
71559;BME280;59382;43.852;25.952;2024-01-16T12:18:02;100894.63;;;7.93;49.55
71559;BME280;59382;43.852;25.952;2024-01-16T12:20:37;100894.06;;;7.83;49.45
71559;BME280;59382;43.852;25.952;2024-01-16T12:23:04;100903.97;;;7.97;49.63
71559;BME280;59382;43.852;25.952;2024-01-16T12:25:31;100913.69;;;7.98;49.80
71559;BME280;59382;43.852;25.952;2024-01-16T12:28:09;100908.19;;;8.06;49.30
71559;BME280;59382;43.852;25.952;2024-01-16T12:30:51;100924.19;;;8.14;49.37
71559;BME280;59382;43.852;25.952;2024-01-16T12:33:21;100907.16;;;8.07;49.29
71559;BME280;59382;43.852;25.952;2024-01-16T12:35:50;100924.84;;;8.16;48.91
71559;BME280;59382;43.852;25.952;2024-01-16T12:38:30;100922.00;;;8.03;48.81
71559;BME280;59382;43.852;25.952;2024-01-16T12:40:55;100933.94;;;8.00;48.65
71559;BME280;59382;43.852;25.952;2024-01-16T12:43:22;100950.91;;;8.01;48.71
71559;BME280;59382;43.852;25.952;2024-01-16T12:45:57;100941.78;;;7.95;48.34
71559;BME280;59382;43.852;25.952;2024-01-16T12:48:26;100956.03;;;7.96;48.53
71559;BME280;59382;43.852;25.952;2024-01-16T12:50:59;100962.03;;;7.98;48.48
71559;BME280;59382;43.852;25.952;2024-01-16T12:53:27;100964.72;;;7.98;48.46
71559;BME280;59382;43.852;25.952;2024-01-16T12:55:59;100973.44;;;8.00;48.39
71559;BME280;59382;43.852;25.952;2024-01-16T12:58:26;100964.06;;;7.96;48.34
71559;BME280;59382;43.852;25.952;2024-01-16T13:00:56;100986.13;;;8.06;48.38
71559;BME280;59382;43.852;25.952;2024-01-16T13:03:24;100981.50;;;8.00;48.18